Beckley, WV (25801)

8:43 AM EDT on July 25, 2016 (GMT -0400)
| | Change Station

Elev -9999 ft 0.00 °N, 0.00 °E | Updated

Partly Cloudy
Partly Cloudy
79 °F
Feels Like 79 °F
N
4
Wind Variable Wind from West
Gusts mph

Today
High -- | Low -- °F
--% Chance of Precip.
Yesterday
High -- | Low -- °F
Precip. -- in
Pressure 30.03 in
Visibility 10.0 miles
Clouds Clear
Dew Point 69 °F
Humidity 72%
Rainfall --
Snow Depth Not available.
6:22 AM 8:39 PM
Waning Gibbous, 66% visible
METAR KBKW 251151Z AUTO 00000KT 10SM CLR 22/20 A3015 RMK AO2 SLP168 T02220200 10222 20200 50004
Pressure 30.03 in
Visibility 10.0 miles
Clouds Clear
Dew Point 69 °F
Humidity 72%
Rainfall --
Snow Depth Not available.
6:22 AM 8:39 PM
Waning Gibbous, 66% visible
METAR KBKW 251151Z AUTO 00000KT 10SM CLR 22/20 A3015 RMK AO2 SLP168 T02220200 10222 20200 50004

10-Day Weather Forecast

Almanac

Astronomy

Jul. 25, 2016 Rise Set
Actual Time
Civil Twilight
Nautical Twilight
Astronomical Twilight
Moon
Length of Visible Light
Length of Day
Tomorrow will be .
, % of the Moon is Illuminated

Today's Extremes

State Highs State Lows

Community

WunderPhotos

Upload Photos

1,927,296 photos uploaded!

WunderBlog® & News

Nearby

Air Quality

  Air Quality AQ Index Pollutant
Not available.

Snow Depth

Station Depth Elevation

Earthquake Activity

City Distance Mag. Time & Date
Minimum magnitude displayed is 2.5.

Coastal Water Temperatures

Place Temperature

Stations

Nearby Weather Stations

Station Location Temp. Windchill Dew Point Humidity Wind Precip. Elev Updated Type
                   

Watches & Warnings

There are currently no watches in effect.